Time;durP1;ratioP1;P1;durP2;ratioP2;P2;SDS_P1;SDS_P2;PMS_P1;PMS_P2;Temp;Humidity;BMP_temperature;BMP_pressure;BME280_temperature;BME280_humidity;BME280_pressure;Samples;Min_cycle;Max_cycle;Signal;HPM_P1;HPM_P2
2022/09/27 00:00:44;;;;;;;1.95;0.25;;;9.80;99.90;;;;;;5036235;28;20021;-76
2022/09/27 00:03:11;;;;;;;1.98;0.30;;;9.80;99.90;;;;;;5036090;28;20104;-76
2022/09/27 00:05:38;;;;;;;2.38;0.15;;;9.70;99.90;;;;;;5036253;28;20040;-76
2022/09/27 00:08:05;;;;;;;2.35;0.43;;;9.60;99.90;;;;;;5035304;28;20021;-76
2022/09/27 00:10:31;;;;;;;3.67;0.25;;;9.40;99.90;;;;;;5035004;28;20026;-76
2022/09/27 00:12:57;;;;;;;1.08;0.15;;;9.30;99.90;;;;;;5034915;28;20021;-76
2022/09/27 00:15:23;;;;;;;2.88;0.20;;;9.30;99.90;;;;;;5035068;28;20022;-76
2022/09/27 00:17:51;;;;;;;2.92;0.30;;;9.20;99.90;;;;;;5034925;28;20479;-76
2022/09/27 00:20:19;;;;;;;4.15;0.30;;;9.20;99.90;;;;;;5034584;28;20476;-76
2022/09/27 00:22:46;;;;;;;1.60;0.20;;;9.30;99.90;;;;;;5034614;28;20021;-76
2022/09/27 00:25:12;;;;;;;4.97;0.20;;;9.40;99.90;;;;;;5034664;28;20104;-76
2022/09/27 00:27:38;;;;;;;3.47;1.17;;;9.50;99.90;;;;;;5034705;28;20380;-76
2022/09/27 00:30:04;;;;;;;5.53;0.40;;;9.60;99.90;;;;;;5034484;28;20025;-76
2022/09/27 00:32:30;;;;;;;1.92;0.60;;;9.40;99.90;;;;;;5043986;22;20195;-81
2022/09/27 00:34:55;;;;;;;2.67;0.20;;;9.30;99.90;;;;;;5015733;28;20081;-81
2022/09/27 00:37:21;;;;;;;1.75;0.17;;;9.30;1.00;;;;;;5015608;28;20057;-81
2022/09/27 00:39:46;;;;;;;2.50;0.73;;;9.40;1.00;;;;;;5014338;28;20028;-81
2022/09/27 00:42:12;;;;;;;6.28;0.50;;;9.30;1.00;;;;;;5013553;28;20466;-81
2022/09/27 00:44:38;;;;;;;2.95;0.30;;;9.40;1.00;;;;;;5014269;28;20022;-81
2022/09/27 00:47:11;;;;;;;5.90;0.40;;;9.40;1.00;;;;;;5014157;28;20037;-81
2022/09/27 00:49:49;;;;;;;2.17;0.30;;;9.40;1.00;;;;;;5015421;28;20461;-81
2022/09/27 00:52:31;;;;;;;5.40;0.50;;;9.40;1.00;;;;;;5015385;28;20113;-81
2022/09/27 00:55:05;;;;;;;0.70;0.20;;;9.50;1.00;;;;;;5014056;28;20029;-81
2022/09/27 00:57:31;;;;;;;2.60;0.20;;;9.60;99.90;;;;;;5014022;28;20040;-80
2022/09/27 01:00:05;;;;;;;1.75;0.22;;;9.60;99.90;;;;;;5015117;28;20101;-81
2022/09/27 01:02:32;;;;;;;3.38;0.40;;;9.60;1.00;;;;;;4995656;28;20233;-81
2022/09/27 01:04:58;;;;;;;4.63;0.30;;;9.80;99.90;;;;;;4994303;28;20049;-81
2022/09/27 01:07:24;;;;;;;3.55;0.63;;;9.90;99.90;;;;;;4995550;28;20113;-81
2022/09/27 01:09:49;;;;;;;1.75;0.35;;;10.30;99.90;;;;;;4998916;28;20049;-81
2022/09/27 01:12:27;;;;;;;3.15;0.20;;;10.40;99.90;;;;;;5015105;28;20026;-82
2022/09/27 01:15:11;;;;;;;0.40;0.10;;;10.30;99.90;;;;;;5014846;28;20109;-82
2022/09/27 01:17:51;;;;;;;2.40;0.22;;;9.90;99.90;;;;;;5014810;28;20018;-80
2022/09/27 01:21:05;;;;;;;0.88;0.25;;;9.80;99.90;;;;;;5014003;28;20022;-80
2022/09/27 01:24:04;;;;;;;1.63;0.20;;;9.70;99.90;;;;;;4995159;28;20030;-79
2022/09/27 01:26:48;;;;;;;3.30;0.25;;;9.70;99.90;;;;;;4995070;28;20027;-79
2022/09/27 01:29:27;;;;;;;1.95;0.50;;;9.60;1.00;;;;;;5009155;28;20037;-79
2022/09/27 01:32:05;;;;;;;2.30;0.25;;;9.50;1.00;;;;;;5024382;28;20049;-80
2022/09/27 01:34:56;;;;;;;2.17;0.10;;;9.40;1.00;;;;;;5006706;28;20114;-79
2022/09/27 01:38:06;;;;;;;6.40;0.60;;;9.40;1.00;;;;;;4993785;28;20086;-79
2022/09/27 01:40:43;;;;;;;4.40;0.60;;;9.60;1.00;;;;;;4979162;28;20379;-80
2022/09/27 01:43:37;;;;;;;2.63;0.40;;;9.60;1.00;;;;;;5131820;27;20380;-80
2022/09/27 01:46:20;;;;;;;2.78;0.28;;;9.60;1.00;;;;;;5111388;28;20032;-80
2022/09/27 01:48:49;;;;;;;0.95;0.20;;;9.60;1.00;;;;;;5111178;28;20026;-80
2022/09/27 01:51:28;;;;;;;5.55;0.20;;;9.60;99.90;;;;;;5111285;28;20383;-80
2022/09/27 01:53:59;;;;;;;3.47;1.73;;;9.60;99.90;;;;;;5111035;28;20052;-80
2022/09/27 01:56:47;;;;;;;2.45;0.20;;;9.60;99.90;;;;;;5111111;28;20329;-79
2022/09/27 01:59:36;;;;;;;1.38;0.40;;;9.60;1.00;;;;;;5103124;28;20031;-80
2022/09/27 02:02:07;;;;;;;4.57;0.25;;;9.60;99.90;;;;;;5108530;28;20501;-81
2022/09/27 02:04:36;;;;;;;2.67;0.40;;;9.60;1.00;;;;;;5072625;28;20460;-80
2022/09/27 02:07:09;;;;;;;4.95;0.30;;;9.70;99.90;;;;;;5072461;28;20039;-80
2022/09/27 02:09:41;;;;;;;6.13;0.40;;;9.70;99.90;;;;;;5072358;28;20036;-80
2022/09/27 02:12:12;;;;;;;1.13;0.15;;;9.70;99.90;;;;;;5090440;28;20070;-80
2022/09/27 02:14:46;;;;;;;4.28;0.38;;;9.60;99.90;;;;;;5090755;28;20060;-80
2022/09/27 02:17:37;;;;;;;3.45;0.30;;;9.60;99.90;;;;;;5090439;28;20103;-80
2022/09/27 02:20:12;;;;;;;1.45;0.28;;;9.50;99.90;;;;;;5071572;28;20398;-80
2022/09/27 02:22:44;;;;;;;2.03;0.10;;;9.40;99.90;;;;;;5104658;28;20032;-80
2022/09/27 02:25:40;;;;;;;2.10;0.22;;;9.30;1.00;;;;;;5110596;28;20775;-80
2022/09/27 02:28:21;;;;;;;0.10;0.08;;;9.50;99.90;;;;;;5110642;28;20016;-81
2022/09/27 02:30:46;;;;;;;;;;;9.60;99.90;;;;;;5092836;28;20031;-81
2022/09/27 02:33:12;;;;;;;1.17;0.20;;;9.60;99.90;;;;;;5081586;28;20286;-81
2022/09/27 02:35:37;;;;;;;1.00;0.10;;;9.60;99.90;;;;;;5066986;28;20383;-80
2022/09/27 02:38:05;;;;;;;0.98;0.45;;;9.50;99.90;;;;;;5069681;28;20036;-81
2022/09/27 02:40:34;;;;;;;3.67;0.10;;;9.40;99.90;;;;;;5069789;28;20020;-80
2022/09/27 02:43:02;;;;;;;1.30;0.10;;;9.50;1.00;;;;;;5051709;28;20057;-80
2022/09/27 02:45:46;;;;;;;1.20;0.40;;;9.40;1.00;;;;;;5052550;28;20066;-81
2022/09/27 02:48:27;;;;;;;3.05;0.10;;;9.40;1.00;;;;;;5069444;28;20107;-80
2022/09/27 02:51:01;;;;;;;;;;;9.30;1.00;;;;;;5052051;28;20046;-81
2022/09/27 02:53:43;;;;;;;2.55;0.30;;;9.30;1.00;;;;;;5062676;28;19905;-80
2022/09/27 02:56:24;;;;;;;3.58;0.28;;;9.20;1.00;;;;;;5056307;28;20025;-80
2022/09/27 02:59:17;;;;;;;5.78;0.30;;;9.10;1.00;;;;;;5056363;28;20053;-80
2022/09/27 03:02:00;;;;;;;0.70;0.17;;;9.10;1.00;;;;;;5051017;28;20029;-80
2022/09/27 03:04:45;;;;;;;1.75;0.30;;;8.90;1.00;;;;;;5056009;28;20368;-80
2022/09/27 03:07:12;;;;;;;3.50;0.30;;;8.90;1.00;;;;;;5056819;28;20103;-80
2022/09/27 03:09:47;;;;;;;4.72;0.20;;;8.80;1.00;;;;;;5055812;28;20428;-80
2022/09/27 03:12:19;;;;;;;4.95;0.30;;;8.70;1.00;;;;;;5038315;28;20025;-80
2022/09/27 03:14:45;;;;;;;3.05;0.28;;;8.70;1.00;;;;;;5042961;28;20036;-80
2022/09/27 03:17:11;;;;;;;5.05;0.57;;;8.60;1.00;;;;;;5056061;28;20016;-81
2022/09/27 03:19:37;;;;;;;6.13;0.55;;;8.60;9.90;;;;;;5054087;28;20032;-80
2022/09/27 03:22:02;;;;;;;2.17;0.20;;;8.60;19.00;;;;;;5017914;28;20473;-81
2022/09/27 03:24:28;;;;;;;3.38;0.30;;;8.40;25.70;;;;;;5044351;28;20112;-80
2022/09/27 03:26:53;;;;;;;5.88;0.40;;;8.40;46.30;;;;;;5056031;28;20029;-81
2022/09/27 03:29:19;;;;;;;3.08;0.70;;;8.40;54.20;;;;;;5055641;28;20063;-81
2022/09/27 03:32:11;;;;;;;4.15;0.50;;;8.40;51.20;;;;;;5055633;28;20032;-81
2022/09/27 03:34:37;;;;;;;1.38;0.20;;;8.30;61.10;;;;;;5037727;28;20051;-81
2022/09/27 03:37:03;;;;;;;5.13;0.45;;;8.30;73.50;;;;;;5042761;28;20441;-80
2022/09/27 03:39:28;;;;;;;3.50;0.28;;;8.20;75.40;;;;;;5035565;28;20025;-81
2022/09/27 03:41:54;;;;;;;3.35;0.20;;;8.20;83.70;;;;;;5047559;28;20526;-81
2022/09/27 03:44:19;;;;;;;2.85;0.17;;;8.10;90.40;;;;;;5037644;28;20021;-81
2022/09/27 03:46:45;;;;;;;2.92;0.30;;;8.20;99.00;;;;;;5055245;28;20021;-81
2022/09/27 03:49:10;;;;;;;2.88;0.25;;;8.10;99.90;;;;;;5036542;28;20422;-81
2022/09/27 03:51:36;;;;;;;10.15;0.55;;;8.10;99.90;;;;;;5017663;28;20029;-81
2022/09/27 03:54:02;;;;;;;56.92;2.70;;;8.00;99.90;;;;;;5035811;28;20398;-81
2022/09/27 03:56:28;;;;;;;2.45;0.20;;;8.00;99.90;;;;;;5018138;28;20025;-80
2022/09/27 03:58:53;;;;;;;1.48;0.20;;;8.10;99.90;;;;;;5041304;28;20375;-80
2022/09/27 04:01:19;;;;;;;5.40;0.30;;;8.10;99.90;;;;;;5050426;28;20032;-81
2022/09/27 04:03:44;;;;;;;1.67;0.20;;;8.20;99.90;;;;;;5017215;28;20468;-81
2022/09/27 04:06:10;;;;;;;2.92;0.20;;;8.30;99.90;;;;;;5016240;28;20033;-81
2022/09/27 04:08:36;;;;;;;1.17;0.13;;;8.40;81.60;;;;;;5034832;28;20021;-81
2022/09/27 04:11:02;;;;;;;1.02;0.10;;;8.50;48.70;;;;;;5034061;28;20083;-80
2022/09/27 04:13:28;;;;;;;1.30;0.10;;;8.60;1.00;;;;;;5035234;28;20030;-81
2022/09/27 04:15:54;;;;;;;1.77;0.47;;;8.60;1.00;;;;;;5034978;28;20021;-81
2022/09/27 04:18:19;;;;;;;1.00;0.10;;;8.60;1.00;;;;;;5036791;28;20032;-81
2022/09/27 04:20:45;;;;;;;1.45;0.20;;;8.40;1.00;;;;;;5054853;28;20017;-81
2022/09/27 04:23:11;;;;;;;0.20;0.10;;;8.20;1.00;;;;;;5054503;28;20033;-80
2022/09/27 04:25:38;;;;;;;1.20;0.20;;;8.10;1.00;;;;;;5036789;28;20025;-80
2022/09/27 04:28:05;;;;;;;1.80;0.30;;;8.00;1.00;;;;;;5037204;28;20418;-79
2022/09/27 04:30:30;;;;;;;1.40;0.20;;;7.80;1.00;;;;;;5042097;28;20036;-80
2022/09/27 04:32:56;;;;;;;2.05;0.40;;;7.60;1.00;;;;;;5034335;28;20018;-80
2022/09/27 04:38:06;;;;;;;2.60;0.20;;;7.50;29.00;;;;;;5036037;28;20096;-80
2022/09/27 04:40:35;;;;;;;3.35;0.52;;;7.40;35.20;;;;;;5035515;28;20053;-80
2022/09/27 04:43:03;;;;;;;1.77;0.10;;;7.30;54.70;;;;;;5033873;28;20045;-80
2022/09/27 04:45:29;;;;;;;3.55;0.30;;;7.30;65.80;;;;;;5054374;28;20029;-80
2022/09/27 04:47:55;;;;;;;1.30;0.10;;;7.10;66.20;;;;;;5036133;28;20079;-80
2022/09/27 04:50:20;;;;;;;2.42;0.30;;;7.00;70.70;;;;;;5034852;28;20450;-80
2022/09/27 04:52:51;;;;;;;4.07;0.32;;;7.00;90.20;;;;;;5034398;28;20537;-80
2022/09/27 04:55:17;;;;;;;3.40;0.40;;;7.00;98.50;;;;;;5037145;28;20077;-80
2022/09/27 04:57:43;;;;;;;2.90;0.40;;;7.00;99.90;;;;;;5053799;28;20032;-80
2022/09/27 05:00:09;;;;;;;1.83;0.20;;;6.90;99.90;;;;;;5038387;28;20104;-79
2022/09/27 05:02:34;;;;;;;1.90;0.30;;;6.80;99.90;;;;;;5037102;28;20464;-79
2022/09/27 05:05:00;;;;;;;2.45;0.30;;;6.80;99.90;;;;;;5053694;28;20024;-78
2022/09/27 05:07:26;;;;;;;0.88;0.13;;;6.80;99.90;;;;;;5053552;28;20175;-79
2022/09/27 05:09:51;;;;;;;2.17;0.30;;;6.80;99.90;;;;;;5053655;28;20590;-78
2022/09/27 05:12:18;;;;;;;5.57;0.20;;;6.90;99.90;;;;;;5044516;28;20100;-78
2022/09/27 05:14:43;;;;;;;11.93;0.70;;;6.90;99.90;;;;;;5033636;28;20032;-78
2022/09/27 05:17:09;;;;;;;3.80;0.30;;;6.80;99.90;;;;;;5033393;28;20017;-78
2022/09/27 05:19:43;;;;;;;4.80;0.55;;;6.80;99.90;;;;;;5033361;28;20017;-78
2022/09/27 05:22:10;;;;;;;2.63;0.20;;;6.80;99.90;;;;;;5033201;28;20507;-78
2022/09/27 05:24:37;;;;;;;5.07;0.28;;;6.80;99.90;;;;;;5015621;28;20496;-78
2022/09/27 05:27:05;;;;;;;2.88;0.40;;;6.70;99.90;;;;;;5043252;28;20013;-79
2022/09/27 05:29:31;;;;;;;2.17;0.10;;;6.70;99.90;;;;;;5053341;28;20013;-79
2022/09/27 05:31:56;;;;;;;3.13;0.63;;;6.70;99.90;;;;;;5053245;28;20031;-78
2022/09/27 05:34:22;;;;;;;2.10;0.40;;;6.70;99.90;;;;;;5053148;28;20056;-78
2022/09/27 05:36:48;;;;;;;2.35;0.20;;;6.80;99.90;;;;;;5053193;28;20114;-78
2022/09/27 05:39:17;;;;;;;3.35;0.20;;;6.80;99.90;;;;;;5049540;28;20053;-78
2022/09/27 05:41:43;;;;;;;1.58;0.28;;;6.80;99.90;;;;;;5032799;28;20060;-78
2022/09/27 05:44:09;;;;;;;2.58;0.30;;;6.80;99.90;;;;;;5033228;28;20408;-78
2022/09/27 05:46:34;;;;;;;3.47;0.65;;;7.00;99.90;;;;;;5033103;28;20080;-78
2022/09/27 05:49:00;;;;;;;3.80;0.40;;;6.90;99.90;;;;;;5036924;28;20082;-78
2022/09/27 05:51:26;;;;;;;3.35;0.40;;;7.00;99.90;;;;;;5044529;28;20029;-78
2022/09/27 05:53:51;;;;;;;3.20;0.55;;;7.00;99.90;;;;;;5033295;28;20092;-78
2022/09/27 05:56:17;;;;;;;4.57;0.30;;;7.10;99.90;;;;;;5033275;28;20426;-78
2022/09/27 05:58:42;;;;;;;4.22;0.57;;;7.10;99.90;;;;;;5043297;28;20092;-78
2022/09/27 06:01:09;;;;;;;2.38;0.30;;;7.10;99.90;;;;;;5053177;28;20021;-78
2022/09/27 06:03:35;;;;;;;3.75;0.50;;;7.20;99.90;;;;;;5036103;28;20079;-78
2022/09/27 06:06:05;;;;;;;1.90;0.50;;;7.30;99.90;;;;;;5033259;28;20018;-78
2022/09/27 06:08:35;;;;;;;2.45;0.30;;;7.50;99.90;;;;;;5033376;28;20688;-78
2022/09/27 06:11:03;;;;;;;3.08;0.40;;;7.50;99.90;;;;;;5033034;28;20036;-78
2022/09/27 06:13:28;;;;;;;2.95;0.65;;;7.70;99.90;;;;;;5033058;28;20018;-78
2022/09/27 06:15:55;;;;;;;2.03;0.73;;;7.80;99.90;;;;;;5015073;28;20075;-78
2022/09/27 06:18:21;;;;;;;4.57;0.80;;;8.00;99.90;;;;;;5038064;28;20040;-78
2022/09/27 06:20:46;;;;;;;3.55;0.60;;;8.40;99.90;;;;;;5034855;28;20021;-78
2022/09/27 06:23:23;;;;;;;2.22;0.40;;;8.60;99.90;;;;;;5052800;28;20036;-78
2022/09/27 06:25:50;;;;;;;4.63;0.50;;;9.00;99.90;;;;;;5052754;28;20017;-78
2022/09/27 06:28:17;;;;;;;0.85;0.50;;;9.30;99.90;;;;;;5053886;28;20055;-78
2022/09/27 06:30:44;;;;;;;2.90;0.70;;;9.70;99.90;;;;;;5056746;28;20040;-78
2022/09/27 06:33:15;;;;;;;3.90;0.40;;;10.10;99.90;;;;;;5057011;28;20017;-78
2022/09/27 06:35:41;;;;;;;3.58;0.63;;;10.70;99.90;;;;;;5060304;28;20029;-77
2022/09/27 06:38:10;;;;;;;2.08;0.40;;;11.10;99.90;;;;;;5063266;28;20471;-78
2022/09/27 06:40:36;;;;;;;1.08;0.40;;;11.50;3.90;;;;;;5056203;28;20471;-78
2022/09/27 06:43:08;;;;;;;2.25;0.45;;;12.00;1.00;;;;;;5061902;28;20126;-78
2022/09/27 06:45:34;;;;;;;4.40;0.65;;;12.20;99.90;;;;;;5044042;28;20025;-78
2022/09/27 06:48:04;;;;;;;6.15;0.38;;;11.90;99.90;;;;;;5051656;28;20027;-78
2022/09/27 06:50:31;;;;;;;2.70;0.30;;;11.60;99.90;;;;;;5049902;28;20036;-78
2022/09/27 06:52:57;;;;;;;4.75;1.75;;;11.40;99.90;;;;;;5053948;28;20454;-78
2022/09/27 06:55:23;;;;;;;3.25;0.40;;;11.20;99.90;;;;;;5066305;28;20029;-78
2022/09/27 07:00:37;;;;;;;4.50;0.50;;;11.00;99.90;;;;;;5066938;28;20071;-78
2022/09/27 07:03:02;;;;;;;5.28;0.40;;;11.00;99.90;;;;;;5067162;28;20033;-79
2022/09/27 07:05:29;;;;;;;1.45;0.20;;;11.00;99.90;;;;;;5057419;28;20096;-77
2022/09/27 07:07:56;;;;;;;1.45;0.20;;;11.00;99.90;;;;;;5065150;28;20028;-78
2022/09/27 07:10:28;;;;;;;5.13;1.00;;;11.10;99.90;;;;;;5051819;28;20024;-79
2022/09/27 07:12:54;;;;;;;5.25;1.08;;;11.30;99.90;;;;;;5068284;28;20025;-78
2022/09/27 07:15:21;;;;;;;2.53;0.20;;;11.20;99.90;;;;;;5050108;28;20025;-79
2022/09/27 07:17:54;;;;;;;0.13;0.03;;;11.20;99.90;;;;;;5067783;28;20028;-79
2022/09/27 07:20:20;;;;;;;1.80;0.47;;;11.10;99.90;;;;;;5050462;28;20036;-79
2022/09/27 07:22:45;;;;;;;0.57;0.15;;;11.00;99.90;;;;;;5051305;28;20439;-79
2022/09/27 07:25:11;;;;;;;3.38;0.20;;;11.00;99.90;;;;;;5070211;28;20088;-79
2022/09/27 07:27:37;;;;;;;0.22;0.20;;;11.10;99.90;;;;;;5070086;28;20017;-79
2022/09/27 07:30:03;;;;;;;0.52;0.20;;;11.20;99.90;;;;;;5070011;28;20021;-79
2022/09/27 07:32:29;;;;;;;3.80;0.40;;;11.30;99.90;;;;;;5053674;28;20028;-79
2022/09/27 07:34:54;;;;;;;3.25;0.28;;;11.50;99.90;;;;;;5071168;28;20017;-79
2022/09/27 07:37:20;;;;;;;2.33;0.45;;;11.50;99.90;;;;;;5071722;28;20025;-79
2022/09/27 07:39:45;;;;;;;2.10;0.50;;;11.70;99.90;;;;;;5067385;28;20051;-79
2022/09/27 07:42:11;;;;;;;1.85;0.30;;;11.80;99.90;;;;;;5060912;28;20122;-79
2022/09/27 07:44:36;;;;;;;5.78;0.68;;;11.90;99.90;;;;;;5055735;28;20021;-79
2022/09/27 07:47:06;;;;;;;1.48;0.20;;;11.80;99.90;;;;;;5040173;28;20092;-80
2022/09/27 07:49:32;;;;;;;2.20;0.10;;;12.10;99.90;;;;;;5035750;28;20013;-79
2022/09/27 07:51:57;;;;;;;0.57;0.22;;;12.20;99.90;;;;;;5035242;28;20055;-79
2022/09/27 07:54:23;;;;;;;1.27;0.10;;;12.30;99.90;;;;;;5035044;28;20025;-79
2022/09/27 07:56:49;;;;;;;2.83;0.20;;;12.10;99.90;;;;;;5035182;28;20025;-79
2022/09/27 07:59:14;;;;;;;2.60;0.25;;;12.00;99.90;;;;;;5035322;28;20096;-79
2022/09/27 08:01:40;;;;;;;3.05;0.43;;;12.10;99.90;;;;;;5040734;28;20069;-79
2022/09/27 08:04:05;;;;;;;2.58;0.30;;;12.10;99.90;;;;;;5034901;28;20034;-79
2022/09/27 08:06:31;;;;;;;4.93;0.32;;;12.40;99.90;;;;;;5047974;28;20018;-79
2022/09/27 08:09:00;;;;;;;4.65;0.60;;;12.30;99.90;;;;;;5042554;28;20009;-79
2022/09/27 08:11:26;;;;;;;7.25;0.60;;;12.20;99.90;;;;;;5054695;28;20421;-79
2022/09/27 08:13:51;;;;;;;3.67;0.30;;;12.40;99.90;;;;;;5054752;28;20028;-79
2022/09/27 08:16:17;;;;;;;2.28;0.30;;;12.30;99.90;;;;;;5041024;28;20051;-79
2022/09/27 08:18:42;;;;;;;1.58;0.20;;;12.20;99.90;;;;;;5034808;28;20021;-80
2022/09/27 08:21:08;;;;;;;1.88;0.30;;;11.80;99.90;;;;;;5034621;28;20032;-79
2022/09/27 08:23:35;;;;;;;3.83;0.20;;;11.60;99.90;;;;;;5034571;28;20026;-79
2022/09/27 08:26:01;;;;;;;2.38;0.13;;;11.20;99.90;;;;;;5017051;28;20380;-79
2022/09/27 08:28:27;;;;;;;3.90;0.32;;;10.90;99.90;;;;;;5034686;28;20444;-79
2022/09/27 08:30:53;;;;;;;0.98;0.00;;;11.00;99.90;;;;;;5049883;28;20377;-79
2022/09/27 08:33:19;;;;;;;1.10;0.10;;;10.90;99.90;;;;;;5054385;28;20475;-79
2022/09/27 08:35:45;;;;;;;1.42;0.10;;;11.10;99.90;;;;;;5024966;28;20028;-79
2022/09/27 08:38:10;;;;;;;0.47;0.10;;;11.30;99.90;;;;;;5034575;28;20018;-79
2022/09/27 08:40:57;;;;;;;0.70;0.10;;;11.60;99.90;;;;;;5034623;28;20369;-79
2022/09/27 08:43:50;;;;;;;1.75;0.20;;;12.10;99.90;;;;;;5033544;28;20034;-79
2022/09/27 08:46:25;;;;;;;0.47;0.10;;;13.40;99.90;;;;;;5034932;28;20028;-79
2022/09/27 08:48:58;;;;;;;1.55;0.17;;;14.80;99.90;;;;;;5034546;28;20029;-79
2022/09/27 08:52:00;;;;;;;1.02;0.20;;;16.30;99.90;;;;;;5033945;28;20025;-79
2022/09/27 08:54:31;;;;;;;3.28;0.28;;;18.60;99.90;;;;;;5034193;28;20029;-79
2022/09/27 08:57:11;;;;;;;1.55;0.30;;;21.30;70.00;;;;;;5037955;28;20088;-79
2022/09/27 08:59:42;;;;;;;2.10;0.30;;;21.30;53.20;;;;;;5046078;28;20468;-79
2022/09/27 09:02:18;;;;;;;1.48;0.20;;;21.20;44.60;;;;;;5052636;28;20033;-80
2022/09/27 09:04:48;;;;;;;2.42;0.10;;;21.00;45.60;;;;;;5034058;28;20021;-79
2022/09/27 09:07:26;;;;;;;1.10;0.20;;;19.80;43.80;;;;;;5033996;28;20028;-79
2022/09/27 09:10:10;;;;;;;2.13;0.22;;;18.80;47.60;;;;;;5034906;28;20025;-79
2022/09/27 09:12:48;;;;;;;5.13;1.05;;;16.60;46.70;;;;;;5049383;28;20029;-79
2022/09/27 09:15:53;;;;;;;9.80;0.90;;;15.00;87.70;;;;;;5033713;28;20026;-80
2022/09/27 09:18:41;;;;;;;2.92;0.63;;;13.50;99.90;;;;;;5033852;28;20022;-80
2022/09/27 09:21:21;;;;;;;4.88;0.30;;;12.80;99.90;;;;;;5033497;28;20034;-80
2022/09/27 09:24:17;;;;;;;2.92;0.43;;;12.50;99.90;;;;;;5042845;28;20033;-80
2022/09/27 09:26:58;;;;;;;4.65;0.50;;;12.20;99.90;;;;;;5053359;28;20502;-79
2022/09/27 09:30:01;;;;;;;4.75;0.50;;;11.80;99.90;;;;;;5053122;28;20021;-80
2022/09/27 09:32:44;;;;;;;4.32;0.50;;;11.60;99.90;;;;;;5052618;28;20032;-79
2022/09/27 09:35:16;;;;;;;4.60;0.57;;;11.60;99.90;;;;;;5050826;28;20087;-80
2022/09/27 09:37:49;;;;;;;4.18;0.50;;;11.50;99.90;;;;;;5052940;28;20028;-80
2022/09/27 09:40:24;;;;;;;4.25;0.32;;;11.30;99.90;;;;;;5051615;28;20025;-80
2022/09/27 09:43:04;;;;;;;5.63;0.60;;;11.30;99.90;;;;;;5047961;28;21624;-79
2022/09/27 09:45:35;;;;;;;5.00;0.40;;;11.40;99.90;;;;;;5047693;28;20031;-80
2022/09/27 09:48:18;;;;;;;3.92;0.40;;;11.70;99.90;;;;;;5033276;28;20708;-79
2022/09/27 09:50:48;;;;;;;3.85;0.73;;;12.00;99.90;;;;;;5033314;28;20029;-79
2022/09/27 09:53:24;;;;;;;6.22;0.60;;;12.40;99.90;;;;;;5033288;28;20030;-79
2022/09/27 09:56:03;;;;;;;5.57;0.40;;;12.90;99.90;;;;;;5052035;28;20466;-79
2022/09/27 09:58:42;;;;;;;5.20;0.82;;;13.10;99.90;;;;;;5051836;28;20579;-79
2022/09/27 10:01:27;;;;;;;2.03;0.17;;;13.50;99.90;;;;;;5033272;28;20030;-80
2022/09/27 10:04:01;;;;;;;6.43;0.40;;;13.80;99.90;;;;;;5017455;28;20025;-79
2022/09/27 10:06:29;;;;;;;4.13;0.63;;;13.70;99.90;;;;;;5052200;28;20151;-80
2022/09/27 10:08:55;;;;;;;2.92;0.30;;;13.90;99.90;;;;;;5057321;28;20025;-80
2022/09/27 10:11:24;;;;;;;4.50;0.40;;;14.10;99.90;;;;;;5057502;28;20025;-80
2022/09/27 10:13:51;;;;;;;3.53;0.50;;;14.50;99.90;;;;;;5041698;28;20103;-80
2022/09/27 10:16:19;;;;;;;5.63;0.50;;;15.10;99.90;;;;;;5055019;28;20266;-80
2022/09/27 10:18:46;;;;;;;2.67;0.43;;;15.40;99.90;;;;;;5056690;28;20053;-80
2022/09/27 10:21:35;;;;;;;4.78;0.30;;;16.40;99.90;;;;;;5056441;28;20471;-80
2022/09/27 10:24:14;;;;;;;5.10;0.55;;;16.70;99.90;;;;;;5039711;28;20064;-80
2022/09/27 10:26:43;;;;;;;2.08;0.40;;;17.70;99.90;;;;;;5053826;28;20082;-80
2022/09/27 10:29:32;;;;;;;1.55;0.20;;;18.10;99.90;;;;;;5056122;28;20052;-80
2022/09/27 10:32:02;;;;;;;2.75;0.30;;;18.10;99.90;;;;;;5049265;28;20471;-80
2022/09/27 10:34:28;;;;;;;2.60;0.10;;;18.00;99.90;;;;;;5034588;28;20118;-80
2022/09/27 10:37:16;;;;;;;2.03;0.13;;;18.40;98.70;;;;;;5056380;28;20115;-80
2022/09/27 10:39:44;;;;;;;1.05;0.10;;;18.40;92.60;;;;;;5056508;28;20759;-80
2022/09/27 10:42:35;;;;;;;2.65;0.10;;;18.70;95.60;;;;;;5053989;28;20049;-80
2022/09/27 10:45:26;;;;;;;0.73;0.10;;;18.20;87.70;;;;;;5055278;28;20376;-80
2022/09/27 10:47:52;;;;;;;0.75;0.00;;;18.30;77.90;;;;;;5048318;28;20060;-80
2022/09/27 10:50:25;;;;;;;1.17;0.20;;;17.90;73.20;;;;;;5050927;28;20511;-80
2022/09/27 10:53:13;;;;;;;0.65;0.10;;;17.10;80.60;;;;;;5056207;28;20017;-80
2022/09/27 10:55:40;;;;;;;3.08;0.30;;;16.20;78.20;;;;;;5056243;28;20028;-79
2022/09/27 10:58:16;;;;;;;3.63;0.30;;;15.50;84.10;;;;;;5055136;28;20024;-80
2022/09/27 11:00:42;;;;;;;0.47;0.10;;;14.60;96.40;;;;;;5036080;28;20021;-80
2022/09/27 11:03:15;;;;;;;1.42;0.40;;;14.30;97.40;;;;;;5018342;28;20029;-80
2022/09/27 11:05:42;;;;;;;1.85;0.20;;;14.70;97.80;;;;;;5052864;28;20032;-80
2022/09/27 11:08:25;;;;;;;1.13;0.20;;;14.80;98.30;;;;;;5042414;28;20044;-80
2022/09/27 11:11:05;;;;;;;1.15;0.30;;;15.50;97.20;;;;;;5036045;28;20056;-80
2022/09/27 11:13:33;;;;;;;1.65;0.17;;;15.80;95.90;;;;;;5054723;28;20078;-80
2022/09/27 11:16:16;;;;;;;1.10;0.40;;;15.80;91.80;;;;;;5055976;28;20029;-80
2022/09/27 11:18:52;;;;;;;2.65;0.28;;;15.70;92.00;;;;;;5035779;28;20048;-80
2022/09/27 11:22:00;;;;;;;1.83;0.20;;;16.10;92.20;;;;;;5051444;28;20083;-80
2022/09/27 11:24:53;;;;;;;0.75;0.17;;;16.10;90.10;;;;;;5009592;28;20064;-80
2022/09/27 11:27:43;;;;;;;3.58;0.35;;;16.30;89.80;;;;;;5043810;28;20021;-80
2022/09/27 11:30:48;;;;;;;1.25;0.10;;;16.40;78.70;;;;;;5035731;28;20364;-80
2022/09/27 11:33:35;;;;;;;1.95;0.17;;;16.50;79.60;;;;;;5018290;28;20339;-80
2022/09/27 11:36:12;;;;;;;2.08;0.17;;;16.50;89.30;;;;;;5035507;28;20053;-80
2022/09/27 11:39:02;;;;;;;1.08;0.10;;;17.10;86.20;;;;;;5035642;28;20014;-80
2022/09/27 11:41:39;;;;;;;1.67;0.10;;;17.00;84.90;;;;;;5050357;28;20049;-80
2022/09/27 11:44:37;;;;;;;0.75;0.15;;;17.10;86.40;;;;;;5055500;28;20059;-80
2022/09/27 11:47:40;;;;;;;3.50;0.20;;;17.00;81.50;;;;;;5035228;28;20036;-80
2022/09/27 11:50:06;;;;;;;0.68;0.10;;;17.00;78.00;;;;;;5002088;28;20391;-81
2022/09/27 11:53:20;;;;;;;1.02;0.20;;;16.50;69.20;;;;;;5054621;28;20104;-79
2022/09/27 11:56:18;;;;;;;0.20;0.20;;;15.30;76.40;;;;;;4954684;29;20174;-79
2022/09/27 11:59:33;;;;;;;1.67;0.17;;;14.90;72.40;;;;;;4954874;29;20059;-80
2022/09/27 12:02:27;;;;;;;1.55;0.20;;;14.90;85.00;;;;;;5035168;28;20461;-79
2022/09/27 12:05:26;;;;;;;2.42;0.20;;;15.00;78.70;;;;;;5034909;28;20038;-80
2022/09/27 12:08:07;;;;;;;0.85;0.20;;;15.70;85.60;;;;;;4981150;28;20042;-80
2022/09/27 12:10:34;;;;;;;0.22;0.10;;;16.20;79.40;;;;;;5034472;28;20143;-80
2022/09/27 12:13:33;;;;;;;0.68;0.20;;;16.80;80.10;;;;;;5041000;28;20033;-80
2022/09/27 12:15:59;;;;;;;0.65;0.10;;;16.20;79.50;;;;;;5034462;28;20014;-80
2022/09/27 12:18:31;;;;;;;0.10;0.10;;;15.70;77.90;;;;;;5036306;28;20028;-80
2022/09/27 12:21:01;;;;;;;0.82;0.08;;;15.30;82.80;;;;;;5046850;28;20017;-80
2022/09/27 12:23:32;;;;;;;;;;;15.20;86.30;;;;;;5035025;28;20022;-80
2022/09/27 12:26:03;;;;;;;1.63;0.20;;;14.80;86.60;;;;;;5033698;28;19920;-80
2022/09/27 12:28:54;;;;;;;2.60;0.40;;;13.80;99.90;;;;;;5034244;28;20035;-80
2022/09/27 12:31:22;;;;;;;2.63;0.40;;;13.30;99.90;;;;;;5044462;28;20025;-80
2022/09/27 12:34:26;;;;;;;1.58;0.20;;;13.20;99.90;;;;;;5053856;28;20024;-80
2022/09/27 12:37:08;;;;;;;3.45;0.38;;;13.30;99.90;;;;;;5037978;28;20041;-80
2022/09/27 12:39:48;;;;;;;1.33;0.20;;;13.40;99.90;;;;;;5054067;28;20025;-80
2022/09/27 12:42:23;;;;;;;1.55;0.20;;;13.40;99.90;;;;;;5036122;28;20604;-78
2022/09/27 12:44:51;;;;;;;1.50;0.40;;;13.50;99.90;;;;;;5015438;28;20053;-77
2022/09/27 12:47:28;;;;;;;2.40;0.20;;;13.60;99.90;;;;;;5041056;28;20021;-77
2022/09/27 12:50:00;;;;;;;2.35;0.20;;;13.70;99.90;;;;;;5032856;28;20017;-77
2022/09/27 12:52:30;;;;;;;0.82;0.13;;;13.70;99.90;;;;;;5033068;28;20021;-77
2022/09/27 12:55:15;;;;;;;1.23;0.13;;;14.00;99.90;;;;;;5033428;28;20037;-77
2022/09/27 12:57:59;;;;;;;1.40;0.20;;;14.10;99.10;;;;;;5032743;28;20633;-77
2022/09/27 13:00:57;;;;;;;1.23;0.52;;;14.20;99.30;;;;;;5032621;28;20018;-77
2022/09/27 13:03:51;;;;;;;2.25;0.20;;;14.30;99.90;;;;;;4962409;28;20072;-77
2022/09/27 13:06:46;;;;;;;1.33;0.20;;;14.30;97.70;;;;;;5052427;28;20028;-77
2022/09/27 13:09:11;;;;;;;4.82;0.40;;;14.70;98.90;;;;;;5030668;28;20029;-77
2022/09/27 13:11:59;;;;;;;1.95;0.22;;;14.60;99.60;;;;;;5032569;28;20483;-77
2022/09/27 13:14:28;;;;;;;1.85;0.30;;;14.50;99.90;;;;;;5032671;28;20027;-77
2022/09/27 13:16:54;;;;;;;1.40;0.20;;;14.20;94.50;;;;;;5049818;28;20075;-77
2022/09/27 13:19:44;;;;;;;1.58;0.50;;;14.20;99.40;;;;;;5052442;28;20654;-77
2022/09/27 13:22:37;;;;;;;2.67;0.40;;;14.40;99.00;;;;;;5040752;28;20118;-77
2022/09/27 13:25:42;;;;;;;1.35;0.13;;;14.30;90.20;;;;;;5033904;28;20021;-77
2022/09/27 13:28:26;;;;;;;0.93;0.30;;;14.30;96.10;;;;;;5032326;28;20031;-77
2022/09/27 13:31:04;;;;;;;0.55;0.15;;;14.20;89.20;;;;;;5049621;28;20329;-77